sensor_id;sensor_type;location;lat;lon;timestamp;P1;durP1;ratioP1;P2;durP2;ratioP2
75061;SDS011;63641;46.526;24.612;2024-03-08T13:16:07;18.13;;;13.23;;
75061;SDS011;63641;46.526;24.612;2024-03-08T13:18:35;21.30;;;13.18;;
75061;SDS011;63641;46.526;24.612;2024-03-08T13:21:05;19.20;;;14.00;;
75061;SDS011;63641;46.526;24.612;2024-03-08T13:23:33;17.40;;;13.48;;
75061;SDS011;63641;46.526;24.612;2024-03-08T13:26:06;19.05;;;14.40;;
75061;SDS011;63641;46.526;24.612;2024-03-08T13:28:34;21.13;;;13.65;;
75061;SDS011;63641;46.526;24.612;2024-03-08T13:31:04;19.38;;;13.18;;
75061;SDS011;63641;46.526;24.612;2024-03-08T13:33:37;18.35;;;13.88;;
75061;SDS011;63641;46.526;24.612;2024-03-08T13:36:05;17.63;;;12.60;;
75061;SDS011;63641;46.526;24.612;2024-03-08T13:38:41;18.30;;;13.48;;
75061;SDS011;63641;46.526;24.612;2024-03-08T13:41:10;16.17;;;13.20;;
75061;SDS011;63641;46.526;24.612;2024-03-08T13:43:38;16.50;;;13.10;;
75061;SDS011;63641;46.526;24.612;2024-03-08T13:46:06;17.80;;;13.18;;
75061;SDS011;63641;46.526;24.612;2024-03-08T13:48:33;17.13;;;13.35;;
75061;SDS011;63641;46.526;24.612;2024-03-08T13:51:00;16.10;;;12.20;;
75061;SDS011;63641;46.526;24.612;2024-03-08T13:53:27;16.83;;;10.95;;
75061;SDS011;63641;46.526;24.612;2024-03-08T13:55:54;16.15;;;11.40;;
75061;SDS011;63641;46.526;24.612;2024-03-08T13:58:21;17.33;;;11.90;;
75061;SDS011;63641;46.526;24.612;2024-03-08T14:00:48;16.95;;;12.40;;
75061;SDS011;63641;46.526;24.612;2024-03-08T14:03:15;14.80;;;12.23;;
75061;SDS011;63641;46.526;24.612;2024-03-08T14:05:42;13.98;;;12.05;;
75061;SDS011;63641;46.526;24.612;2024-03-08T14:08:09;15.85;;;12.15;;
75061;SDS011;63641;46.526;24.612;2024-03-08T14:10:38;16.95;;;12.30;;
75061;SDS011;63641;46.526;24.612;2024-03-08T14:13:05;17.73;;;12.27;;
75061;SDS011;63641;46.526;24.612;2024-03-08T14:15:33;16.35;;;12.43;;
75061;SDS011;63641;46.526;24.612;2024-03-08T14:18:01;16.80;;;11.48;;
75061;SDS011;63641;46.526;24.612;2024-03-08T14:20:28;16.42;;;11.48;;
75061;SDS011;63641;46.526;24.612;2024-03-08T14:22:55;14.43;;;11.27;;
75061;SDS011;63641;46.526;24.612;2024-03-08T14:25:23;16.55;;;11.93;;
75061;SDS011;63641;46.526;24.612;2024-03-08T14:27:51;19.20;;;12.02;;
75061;SDS011;63641;46.526;24.612;2024-03-08T14:36:19;19.10;;;13.57;;
75061;SDS011;63641;46.526;24.612;2024-03-08T14:38:46;16.25;;;12.63;;
75061;SDS011;63641;46.526;24.612;2024-03-08T14:41:13;17.67;;;12.05;;
75061;SDS011;63641;46.526;24.612;2024-03-08T14:43:43;15.40;;;11.85;;
75061;SDS011;63641;46.526;24.612;2024-03-08T14:46:14;20.90;;;12.27;;
75061;SDS011;63641;46.526;24.612;2024-03-08T14:48:46;24.23;;;12.93;;
75061;SDS011;63641;46.526;24.612;2024-03-08T14:51:17;17.98;;;12.30;;
75061;SDS011;63641;46.526;24.612;2024-03-08T14:53:48;18.25;;;12.27;;
75061;SDS011;63641;46.526;24.612;2024-03-08T14:56:16;18.38;;;12.00;;
75061;SDS011;63641;46.526;24.612;2024-03-08T14:58:43;18.30;;;12.13;;
75061;SDS011;63641;46.526;24.612;2024-03-08T15:01:11;19.35;;;12.85;;
75061;SDS011;63641;46.526;24.612;2024-03-08T15:03:40;18.35;;;12.52;;
75061;SDS011;63641;46.526;24.612;2024-03-08T15:06:07;19.13;;;12.88;;
75061;SDS011;63641;46.526;24.612;2024-03-08T15:08:38;19.55;;;13.00;;
75061;SDS011;63641;46.526;24.612;2024-03-08T15:11:06;17.60;;;12.30;;
75061;SDS011;63641;46.526;24.612;2024-03-08T15:13:33;16.80;;;12.00;;
75061;SDS011;63641;46.526;24.612;2024-03-08T15:16:08;18.90;;;12.63;;
75061;SDS011;63641;46.526;24.612;2024-03-08T15:18:41;16.37;;;12.30;;
75061;SDS011;63641;46.526;24.612;2024-03-08T15:21:17;16.95;;;11.85;;
75061;SDS011;63641;46.526;24.612;2024-03-08T15:23:45;19.30;;;12.18;;
75061;SDS011;63641;46.526;24.612;2024-03-08T15:26:18;21.47;;;13.60;;
75061;SDS011;63641;46.526;24.612;2024-03-08T15:28:45;17.90;;;12.73;;
75061;SDS011;63641;46.526;24.612;2024-03-08T15:31:13;18.38;;;12.77;;
75061;SDS011;63641;46.526;24.612;2024-03-08T15:33:40;16.17;;;12.02;;
75061;SDS011;63641;46.526;24.612;2024-03-08T15:36:11;16.35;;;11.85;;
75061;SDS011;63641;46.526;24.612;2024-03-08T15:38:40;17.38;;;12.52;;
75061;SDS011;63641;46.526;24.612;2024-03-08T15:41:09;18.67;;;12.07;;
75061;SDS011;63641;46.526;24.612;2024-03-08T15:43:38;16.65;;;12.00;;
75061;SDS011;63641;46.526;24.612;2024-03-08T15:46:06;20.13;;;12.40;;
75061;SDS011;63641;46.526;24.612;2024-03-08T15:48:34;18.02;;;12.55;;
75061;SDS011;63641;46.526;24.612;2024-03-08T15:51:02;16.00;;;11.90;;
75061;SDS011;63641;46.526;24.612;2024-03-08T15:53:34;16.10;;;11.88;;
75061;SDS011;63641;46.526;24.612;2024-03-08T15:56:05;20.92;;;14.15;;
75061;SDS011;63641;46.526;24.612;2024-03-08T15:58:34;17.35;;;12.38;;
75061;SDS011;63641;46.526;24.612;2024-03-08T16:01:04;18.30;;;12.98;;
75061;SDS011;63641;46.526;24.612;2024-03-08T16:03:33;18.73;;;12.68;;
75061;SDS011;63641;46.526;24.612;2024-03-08T16:06:00;17.38;;;12.43;;
75061;SDS011;63641;46.526;24.612;2024-03-08T16:08:27;15.73;;;12.25;;
75061;SDS011;63641;46.526;24.612;2024-03-08T16:10:54;17.00;;;13.02;;
75061;SDS011;63641;46.526;24.612;2024-03-08T16:13:22;18.63;;;13.07;;
75061;SDS011;63641;46.526;24.612;2024-03-08T16:15:51;17.38;;;12.77;;
75061;SDS011;63641;46.526;24.612;2024-03-08T16:18:21;18.85;;;13.57;;
75061;SDS011;63641;46.526;24.612;2024-03-08T16:20:49;19.30;;;13.00;;
75061;SDS011;63641;46.526;24.612;2024-03-08T16:23:17;23.55;;;13.18;;
75061;SDS011;63641;46.526;24.612;2024-03-08T16:25:44;19.20;;;13.65;;
75061;SDS011;63641;46.526;24.612;2024-03-08T16:28:11;19.35;;;13.52;;
75061;SDS011;63641;46.526;24.612;2024-03-08T16:30:43;21.25;;;13.75;;
75061;SDS011;63641;46.526;24.612;2024-03-08T16:33:21;20.85;;;13.73;;
75061;SDS011;63641;46.526;24.612;2024-03-08T16:35:49;18.92;;;14.85;;
75061;SDS011;63641;46.526;24.612;2024-03-08T16:38:18;22.15;;;13.65;;
75061;SDS011;63641;46.526;24.612;2024-03-08T16:40:45;18.00;;;13.30;;
75061;SDS011;63641;46.526;24.612;2024-03-08T16:43:14;17.67;;;12.98;;
75061;SDS011;63641;46.526;24.612;2024-03-08T16:45:42;21.33;;;13.25;;
75061;SDS011;63641;46.526;24.612;2024-03-08T16:48:10;14.15;;;11.93;;
75061;SDS011;63641;46.526;24.612;2024-03-08T16:50:37;22.40;;;12.05;;
75061;SDS011;63641;46.526;24.612;2024-03-08T16:53:04;17.13;;;12.20;;
75061;SDS011;63641;46.526;24.612;2024-03-08T16:55:31;19.45;;;12.90;;
75061;SDS011;63641;46.526;24.612;2024-03-08T16:58:00;18.33;;;13.07;;
75061;SDS011;63641;46.526;24.612;2024-03-08T17:00:27;17.23;;;12.38;;
75061;SDS011;63641;46.526;24.612;2024-03-08T17:02:54;18.50;;;12.95;;
75061;SDS011;63641;46.526;24.612;2024-03-08T17:05:24;18.35;;;12.82;;
75061;SDS011;63641;46.526;24.612;2024-03-08T17:07:59;20.77;;;12.52;;
75061;SDS011;63641;46.526;24.612;2024-03-08T17:10:27;16.80;;;12.65;;
75061;SDS011;63641;46.526;24.612;2024-03-08T17:12:55;18.13;;;12.82;;
75061;SDS011;63641;46.526;24.612;2024-03-08T17:15:30;22.58;;;14.55;;
75061;SDS011;63641;46.526;24.612;2024-03-08T17:18:01;17.70;;;12.95;;
75061;SDS011;63641;46.526;24.612;2024-03-08T17:20:38;19.40;;;13.77;;
75061;SDS011;63641;46.526;24.612;2024-03-08T17:23:08;15.13;;;11.90;;
75061;SDS011;63641;46.526;24.612;2024-03-08T17:25:39;16.55;;;12.48;;
75061;SDS011;63641;46.526;24.612;2024-03-08T17:28:06;19.15;;;13.23;;
75061;SDS011;63641;46.526;24.612;2024-03-08T17:30:35;18.98;;;13.57;;
75061;SDS011;63641;46.526;24.612;2024-03-08T17:33:07;16.33;;;12.80;;
75061;SDS011;63641;46.526;24.612;2024-03-08T17:35:42;20.10;;;12.90;;
75061;SDS011;63641;46.526;24.612;2024-03-08T17:38:11;18.67;;;13.32;;
75061;SDS011;63641;46.526;24.612;2024-03-08T17:40:41;20.02;;;13.50;;
75061;SDS011;63641;46.526;24.612;2024-03-08T17:43:11;18.15;;;12.93;;
75061;SDS011;63641;46.526;24.612;2024-03-08T17:45:40;20.33;;;13.77;;
75061;SDS011;63641;46.526;24.612;2024-03-08T17:48:12;18.98;;;12.48;;
75061;SDS011;63641;46.526;24.612;2024-03-08T17:50:40;18.50;;;13.25;;
75061;SDS011;63641;46.526;24.612;2024-03-08T17:53:08;27.77;;;13.80;;
75061;SDS011;63641;46.526;24.612;2024-03-08T17:55:37;20.08;;;12.52;;
75061;SDS011;63641;46.526;24.612;2024-03-08T17:58:07;17.42;;;13.23;;
75061;SDS011;63641;46.526;24.612;2024-03-08T18:00:37;17.55;;;13.43;;
75061;SDS011;63641;46.526;24.612;2024-03-08T18:03:07;21.20;;;13.63;;
75061;SDS011;63641;46.526;24.612;2024-03-08T18:05:45;19.77;;;13.98;;
75061;SDS011;63641;46.526;24.612;2024-03-08T18:08:13;24.20;;;14.23;;
75061;SDS011;63641;46.526;24.612;2024-03-08T18:10:40;17.33;;;13.43;;
75061;SDS011;63641;46.526;24.612;2024-03-08T18:13:09;17.80;;;13.80;;
75061;SDS011;63641;46.526;24.612;2024-03-08T18:15:40;20.10;;;14.15;;
75061;SDS011;63641;46.526;24.612;2024-03-08T18:18:13;19.40;;;14.75;;
75061;SDS011;63641;46.526;24.612;2024-03-08T18:20:41;19.05;;;14.02;;
75061;SDS011;63641;46.526;24.612;2024-03-08T18:23:11;18.00;;;13.90;;
75061;SDS011;63641;46.526;24.612;2024-03-08T18:25:39;17.63;;;12.93;;
75061;SDS011;63641;46.526;24.612;2024-03-08T18:28:07;18.98;;;13.43;;
75061;SDS011;63641;46.526;24.612;2024-03-08T18:30:36;20.05;;;14.25;;
75061;SDS011;63641;46.526;24.612;2024-03-08T18:33:04;21.70;;;13.88;;
75061;SDS011;63641;46.526;24.612;2024-03-08T18:35:31;21.20;;;14.20;;
75061;SDS011;63641;46.526;24.612;2024-03-08T18:37:58;20.00;;;14.25;;
75061;SDS011;63641;46.526;24.612;2024-03-08T18:40:25;21.83;;;14.85;;
75061;SDS011;63641;46.526;24.612;2024-03-08T18:42:53;25.73;;;16.60;;
75061;SDS011;63641;46.526;24.612;2024-03-08T18:45:21;21.75;;;15.00;;
75061;SDS011;63641;46.526;24.612;2024-03-08T18:47:51;20.92;;;15.43;;
75061;SDS011;63641;46.526;24.612;2024-03-08T18:50:19;25.38;;;16.38;;
75061;SDS011;63641;46.526;24.612;2024-03-08T18:52:47;20.80;;;14.32;;
75061;SDS011;63641;46.526;24.612;2024-03-08T18:55:15;19.90;;;14.50;;
75061;SDS011;63641;46.526;24.612;2024-03-08T18:57:47;21.63;;;14.98;;
75061;SDS011;63641;46.526;24.612;2024-03-08T19:00:15;21.48;;;14.57;;
75061;SDS011;63641;46.526;24.612;2024-03-08T19:02:57;21.77;;;15.43;;
75061;SDS011;63641;46.526;24.612;2024-03-08T19:05:32;18.95;;;13.70;;
75061;SDS011;63641;46.526;24.612;2024-03-08T19:07:59;21.08;;;14.23;;
75061;SDS011;63641;46.526;24.612;2024-03-08T19:10:36;20.33;;;14.25;;
75061;SDS011;63641;46.526;24.612;2024-03-08T19:13:07;22.65;;;16.20;;
75061;SDS011;63641;46.526;24.612;2024-03-08T19:15:37;23.30;;;17.45;;
75061;SDS011;63641;46.526;24.612;2024-03-08T19:18:05;24.30;;;18.13;;
75061;SDS011;63641;46.526;24.612;2024-03-08T19:20:34;25.60;;;17.85;;
75061;SDS011;63641;46.526;24.612;2024-03-08T19:23:02;19.52;;;14.55;;
75061;SDS011;63641;46.526;24.612;2024-03-08T19:25:32;24.73;;;17.23;;
75061;SDS011;63641;46.526;24.612;2024-03-08T19:28:02;25.85;;;17.00;;
75061;SDS011;63641;46.526;24.612;2024-03-08T19:30:31;22.23;;;15.63;;
75061;SDS011;63641;46.526;24.612;2024-03-08T19:33:04;20.63;;;15.05;;
75061;SDS011;63641;46.526;24.612;2024-03-08T19:35:35;21.15;;;13.98;;
75061;SDS011;63641;46.526;24.612;2024-03-08T19:38:03;22.02;;;14.25;;
75061;SDS011;63641;46.526;24.612;2024-03-08T19:40:30;25.48;;;16.10;;
75061;SDS011;63641;46.526;24.612;2024-03-08T19:43:02;23.45;;;16.67;;
75061;SDS011;63641;46.526;24.612;2024-03-08T19:45:32;29.27;;;20.77;;
75061;SDS011;63641;46.526;24.612;2024-03-08T19:48:00;20.50;;;14.48;;
75061;SDS011;63641;46.526;24.612;2024-03-08T19:50:31;33.10;;;22.00;;
75061;SDS011;63641;46.526;24.612;2024-03-08T19:52:59;24.38;;;17.10;;
75061;SDS011;63641;46.526;24.612;2024-03-08T19:55:37;24.23;;;16.23;;
75061;SDS011;63641;46.526;24.612;2024-03-08T19:58:06;25.58;;;17.13;;
75061;SDS011;63641;46.526;24.612;2024-03-08T20:00:33;27.42;;;20.65;;
75061;SDS011;63641;46.526;24.612;2024-03-08T20:03:01;32.15;;;23.25;;
75061;SDS011;63641;46.526;24.612;2024-03-08T20:05:32;25.02;;;18.80;;
75061;SDS011;63641;46.526;24.612;2024-03-08T20:08:01;31.35;;;19.90;;
75061;SDS011;63641;46.526;24.612;2024-03-08T20:10:35;27.67;;;20.17;;
75061;SDS011;63641;46.526;24.612;2024-03-08T20:13:03;31.70;;;21.20;;
75061;SDS011;63641;46.526;24.612;2024-03-08T20:15:34;30.55;;;20.80;;
75061;SDS011;63641;46.526;24.612;2024-03-08T20:18:13;29.75;;;20.90;;
75061;SDS011;63641;46.526;24.612;2024-03-08T20:20:40;29.52;;;21.80;;
75061;SDS011;63641;46.526;24.612;2024-03-08T20:23:09;28.80;;;20.52;;
75061;SDS011;63641;46.526;24.612;2024-03-08T20:25:39;32.30;;;21.13;;
75061;SDS011;63641;46.526;24.612;2024-03-08T20:28:11;30.35;;;18.95;;
75061;SDS011;63641;46.526;24.612;2024-03-08T20:30:38;29.85;;;19.90;;
75061;SDS011;63641;46.526;24.612;2024-03-08T20:33:08;26.83;;;19.98;;
75061;SDS011;63641;46.526;24.612;2024-03-08T20:35:36;29.85;;;19.85;;
75061;SDS011;63641;46.526;24.612;2024-03-08T20:38:03;25.95;;;18.35;;
75061;SDS011;63641;46.526;24.612;2024-03-08T20:40:34;24.75;;;16.98;;
75061;SDS011;63641;46.526;24.612;2024-03-08T20:43:13;24.05;;;17.85;;
75061;SDS011;63641;46.526;24.612;2024-03-08T20:45:44;26.25;;;16.50;;
75061;SDS011;63641;46.526;24.612;2024-03-08T20:48:12;24.70;;;17.42;;
75061;SDS011;63641;46.526;24.612;2024-03-08T20:50:40;21.42;;;16.25;;
75061;SDS011;63641;46.526;24.612;2024-03-08T20:53:08;25.15;;;17.88;;
75061;SDS011;63641;46.526;24.612;2024-03-08T20:55:38;21.35;;;15.70;;
75061;SDS011;63641;46.526;24.612;2024-03-08T20:58:06;23.52;;;15.50;;
75061;SDS011;63641;46.526;24.612;2024-03-08T21:00:33;24.40;;;17.25;;
75061;SDS011;63641;46.526;24.612;2024-03-08T21:03:03;24.95;;;15.73;;
75061;SDS011;63641;46.526;24.612;2024-03-08T21:05:32;20.92;;;15.35;;
75061;SDS011;63641;46.526;24.612;2024-03-08T21:07:58;22.70;;;16.17;;
75061;SDS011;63641;46.526;24.612;2024-03-08T21:10:26;23.30;;;16.17;;
75061;SDS011;63641;46.526;24.612;2024-03-08T21:12:56;24.88;;;17.52;;
75061;SDS011;63641;46.526;24.612;2024-03-08T21:15:23;30.48;;;22.48;;
75061;SDS011;63641;46.526;24.612;2024-03-08T21:17:50;22.10;;;15.48;;
75061;SDS011;63641;46.526;24.612;2024-03-08T21:20:18;27.00;;;19.65;;
75061;SDS011;63641;46.526;24.612;2024-03-08T21:22:47;26.77;;;17.55;;
75061;SDS011;63641;46.526;24.612;2024-03-08T21:25:14;25.60;;;17.80;;
75061;SDS011;63641;46.526;24.612;2024-03-08T21:27:42;26.17;;;18.73;;
75061;SDS011;63641;46.526;24.612;2024-03-08T21:30:21;25.25;;;15.77;;
75061;SDS011;63641;46.526;24.612;2024-03-08T21:32:48;24.17;;;16.75;;
75061;SDS011;63641;46.526;24.612;2024-03-08T21:35:16;23.48;;;15.75;;
75061;SDS011;63641;46.526;24.612;2024-03-08T21:37:46;21.52;;;15.18;;
75061;SDS011;63641;46.526;24.612;2024-03-08T21:40:17;21.73;;;15.10;;
75061;SDS011;63641;46.526;24.612;2024-03-08T21:42:48;23.83;;;16.13;;
75061;SDS011;63641;46.526;24.612;2024-03-08T21:45:16;20.65;;;15.50;;
75061;SDS011;63641;46.526;24.612;2024-03-08T21:47:43;24.73;;;16.60;;
75061;SDS011;63641;46.526;24.612;2024-03-08T21:50:15;24.05;;;15.85;;
75061;SDS011;63641;46.526;24.612;2024-03-08T21:52:42;28.17;;;18.38;;
75061;SDS011;63641;46.526;24.612;2024-03-08T21:55:10;32.78;;;21.77;;
75061;SDS011;63641;46.526;24.612;2024-03-08T21:57:38;30.52;;;22.48;;
75061;SDS011;63641;46.526;24.612;2024-03-08T22:00:05;33.30;;;23.88;;
75061;SDS011;63641;46.526;24.612;2024-03-08T22:02:41;32.88;;;21.00;;
75061;SDS011;63641;46.526;24.612;2024-03-08T22:05:12;37.75;;;25.40;;
75061;SDS011;63641;46.526;24.612;2024-03-08T22:07:43;28.23;;;20.65;;
75061;SDS011;63641;46.526;24.612;2024-03-08T22:10:11;27.60;;;19.70;;
75061;SDS011;63641;46.526;24.612;2024-03-08T22:12:52;29.92;;;20.10;;
75061;SDS011;63641;46.526;24.612;2024-03-08T22:15:20;31.77;;;20.02;;
75061;SDS011;63641;46.526;24.612;2024-03-08T22:17:49;29.42;;;20.75;;
75061;SDS011;63641;46.526;24.612;2024-03-08T22:20:19;31.52;;;21.10;;
75061;SDS011;63641;46.526;24.612;2024-03-08T22:22:54;32.85;;;22.20;;
75061;SDS011;63641;46.526;24.612;2024-03-08T22:25:21;28.48;;;20.20;;
75061;SDS011;63641;46.526;24.612;2024-03-08T22:27:49;24.23;;;19.48;;
75061;SDS011;63641;46.526;24.612;2024-03-08T22:30:17;31.55;;;22.40;;
75061;SDS011;63641;46.526;24.612;2024-03-08T22:32:46;28.92;;;20.15;;
75061;SDS011;63641;46.526;24.612;2024-03-08T22:35:13;32.28;;;22.25;;
75061;SDS011;63641;46.526;24.612;2024-03-08T22:37:41;33.35;;;22.30;;
75061;SDS011;63641;46.526;24.612;2024-03-08T22:40:09;30.45;;;19.90;;
75061;SDS011;63641;46.526;24.612;2024-03-08T22:42:44;29.08;;;19.42;;
75061;SDS011;63641;46.526;24.612;2024-03-08T22:45:12;30.52;;;21.30;;
75061;SDS011;63641;46.526;24.612;2024-03-08T22:47:40;33.08;;;22.70;;
75061;SDS011;63641;46.526;24.612;2024-03-08T22:50:10;33.83;;;21.80;;
75061;SDS011;63641;46.526;24.612;2024-03-08T22:52:39;29.88;;;20.98;;
75061;SDS011;63641;46.526;24.612;2024-03-08T22:55:07;29.33;;;20.30;;
75061;SDS011;63641;46.526;24.612;2024-03-08T22:57:35;29.10;;;20.85;;
75061;SDS011;63641;46.526;24.612;2024-03-08T23:00:07;30.50;;;21.33;;
75061;SDS011;63641;46.526;24.612;2024-03-08T23:02:51;27.25;;;20.67;;
75061;SDS011;63641;46.526;24.612;2024-03-08T23:05:18;27.73;;;19.88;;
75061;SDS011;63641;46.526;24.612;2024-03-08T23:07:45;25.92;;;18.85;;
75061;SDS011;63641;46.526;24.612;2024-03-08T23:10:12;28.35;;;19.17;;
75061;SDS011;63641;46.526;24.612;2024-03-08T23:12:40;26.45;;;18.60;;
75061;SDS011;63641;46.526;24.612;2024-03-08T23:15:07;26.88;;;17.52;;
75061;SDS011;63641;46.526;24.612;2024-03-08T23:17:44;22.23;;;16.85;;
75061;SDS011;63641;46.526;24.612;2024-03-08T23:20:19;24.17;;;17.50;;
75061;SDS011;63641;46.526;24.612;2024-03-08T23:22:47;20.40;;;15.65;;
75061;SDS011;63641;46.526;24.612;2024-03-08T23:25:18;20.98;;;15.88;;
75061;SDS011;63641;46.526;24.612;2024-03-08T23:27:50;21.67;;;16.27;;
75061;SDS011;63641;46.526;24.612;2024-03-08T23:30:24;21.42;;;15.68;;
75061;SDS011;63641;46.526;24.612;2024-03-08T23:32:54;24.85;;;16.83;;
75061;SDS011;63641;46.526;24.612;2024-03-08T23:35:21;22.48;;;14.95;;
75061;SDS011;63641;46.526;24.612;2024-03-08T23:37:48;21.15;;;16.58;;
75061;SDS011;63641;46.526;24.612;2024-03-08T23:40:18;28.42;;;18.17;;
75061;SDS011;63641;46.526;24.612;2024-03-08T23:42:46;23.40;;;17.40;;
75061;SDS011;63641;46.526;24.612;2024-03-08T23:45:15;22.33;;;17.50;;
75061;SDS011;63641;46.526;24.612;2024-03-08T23:47:50;24.50;;;17.38;;
75061;SDS011;63641;46.526;24.612;2024-03-08T23:50:25;23.85;;;17.42;;
75061;SDS011;63641;46.526;24.612;2024-03-08T23:52:58;21.45;;;16.48;;
75061;SDS011;63641;46.526;24.612;2024-03-08T23:55:29;25.38;;;17.45;;
75061;SDS011;63641;46.526;24.612;2024-03-08T23:58:00;20.90;;;17.02;;
